sensor_id;sensor_type;location;lat;lon;timestamp;P1;durP1;ratioP1;P2;durP2;ratioP2
691;SDS011;328;50.086;8.576;2023-04-15T00:01:59;4.93;;;3.73;;
691;SDS011;328;50.086;8.576;2023-04-15T00:04:27;6.93;;;3.67;;
691;SDS011;328;50.086;8.576;2023-04-15T00:06:56;6.77;;;3.90;;
691;SDS011;328;50.086;8.576;2023-04-15T00:09:24;12.27;;;4.30;;
691;SDS011;328;50.086;8.576;2023-04-15T00:11:51;7.00;;;3.10;;
691;SDS011;328;50.086;8.576;2023-04-15T00:14:19;4.80;;;3.10;;
691;SDS011;328;50.086;8.576;2023-04-15T00:16:48;6.50;;;3.40;;
691;SDS011;328;50.086;8.576;2023-04-15T00:19:21;10.43;;;4.00;;
691;SDS011;328;50.086;8.576;2023-04-15T00:21:48;5.43;;;2.97;;
691;SDS011;328;50.086;8.576;2023-04-15T00:24:16;4.87;;;3.30;;
691;SDS011;328;50.086;8.576;2023-04-15T00:26:43;6.33;;;3.50;;
691;SDS011;328;50.086;8.576;2023-04-15T00:29:11;5.37;;;3.00;;
691;SDS011;328;50.086;8.576;2023-04-15T00:31:39;6.23;;;4.53;;
691;SDS011;328;50.086;8.576;2023-04-15T00:34:08;7.57;;;4.60;;
691;SDS011;328;50.086;8.576;2023-04-15T00:36:36;9.40;;;4.67;;
691;SDS011;328;50.086;8.576;2023-04-15T00:39:03;7.63;;;5.80;;
691;SDS011;328;50.086;8.576;2023-04-15T00:41:31;6.20;;;4.07;;
691;SDS011;328;50.086;8.576;2023-04-15T00:43:59;7.73;;;5.67;;
691;SDS011;328;50.086;8.576;2023-04-15T00:46:27;5.37;;;3.90;;
691;SDS011;328;50.086;8.576;2023-04-15T00:48:56;6.00;;;4.43;;
691;SDS011;328;50.086;8.576;2023-04-15T00:51:25;5.90;;;4.13;;
691;SDS011;328;50.086;8.576;2023-04-15T00:53:52;4.30;;;3.80;;
691;SDS011;328;50.086;8.576;2023-04-15T00:56:20;6.13;;;3.63;;
691;SDS011;328;50.086;8.576;2023-04-15T00:58:49;6.50;;;4.80;;
691;SDS011;328;50.086;8.576;2023-04-15T01:01:17;4.90;;;3.93;;
691;SDS011;328;50.086;8.576;2023-04-15T01:03:47;6.03;;;4.60;;
691;SDS011;328;50.086;8.576;2023-04-15T01:06:16;7.60;;;4.20;;
691;SDS011;328;50.086;8.576;2023-04-15T01:08:45;9.00;;;4.50;;
691;SDS011;328;50.086;8.576;2023-04-15T01:11:13;5.43;;;4.60;;
691;SDS011;328;50.086;8.576;2023-04-15T01:13:41;8.07;;;3.80;;
691;SDS011;328;50.086;8.576;2023-04-15T01:16:08;6.80;;;5.00;;
691;SDS011;328;50.086;8.576;2023-04-15T01:18:38;8.37;;;4.60;;
691;SDS011;328;50.086;8.576;2023-04-15T01:21:06;4.50;;;4.10;;
691;SDS011;328;50.086;8.576;2023-04-15T01:23:34;4.60;;;4.20;;
691;SDS011;328;50.086;8.576;2023-04-15T01:26:05;4.70;;;3.67;;
691;SDS011;328;50.086;8.576;2023-04-15T01:28:34;5.93;;;3.93;;
691;SDS011;328;50.086;8.576;2023-04-15T01:31:05;6.80;;;4.27;;
691;SDS011;328;50.086;8.576;2023-04-15T01:33:33;4.67;;;4.13;;
691;SDS011;328;50.086;8.576;2023-04-15T01:36:01;4.23;;;3.83;;
691;SDS011;328;50.086;8.576;2023-04-15T01:38:30;9.33;;;4.17;;
691;SDS011;328;50.086;8.576;2023-04-15T01:40:58;9.60;;;4.70;;
691;SDS011;328;50.086;8.576;2023-04-15T01:43:27;6.60;;;4.50;;
691;SDS011;328;50.086;8.576;2023-04-15T01:45:54;5.43;;;4.00;;
691;SDS011;328;50.086;8.576;2023-04-15T01:48:22;7.30;;;3.97;;
691;SDS011;328;50.086;8.576;2023-04-15T01:50:51;6.70;;;4.50;;
691;SDS011;328;50.086;8.576;2023-04-15T01:53:19;4.47;;;3.60;;
691;SDS011;328;50.086;8.576;2023-04-15T01:55:46;5.33;;;3.40;;
691;SDS011;328;50.086;8.576;2023-04-15T01:58:14;3.90;;;3.33;;
691;SDS011;328;50.086;8.576;2023-04-15T02:00:43;6.53;;;3.70;;
691;SDS011;328;50.086;8.576;2023-04-15T02:03:11;4.87;;;4.00;;
691;SDS011;328;50.086;8.576;2023-04-15T02:05:38;4.20;;;3.10;;
691;SDS011;328;50.086;8.576;2023-04-15T02:08:06;6.00;;;3.63;;
691;SDS011;328;50.086;8.576;2023-04-15T02:10:33;5.10;;;3.40;;
691;SDS011;328;50.086;8.576;2023-04-15T02:13:01;3.07;;;2.63;;
691;SDS011;328;50.086;8.576;2023-04-15T02:15:28;5.33;;;4.17;;
691;SDS011;328;50.086;8.576;2023-04-15T02:17:57;5.37;;;3.30;;
691;SDS011;328;50.086;8.576;2023-04-15T02:20:26;5.80;;;3.73;;
691;SDS011;328;50.086;8.576;2023-04-15T02:22:55;5.03;;;3.40;;
691;SDS011;328;50.086;8.576;2023-04-15T02:25:23;6.17;;;3.30;;
691;SDS011;328;50.086;8.576;2023-04-15T02:27:50;4.90;;;3.50;;
691;SDS011;328;50.086;8.576;2023-04-15T02:30:18;6.30;;;4.30;;
691;SDS011;328;50.086;8.576;2023-04-15T02:32:46;6.20;;;3.30;;
691;SDS011;328;50.086;8.576;2023-04-15T02:35:15;5.83;;;3.90;;
691;SDS011;328;50.086;8.576;2023-04-15T02:37:44;5.07;;;3.03;;
691;SDS011;328;50.086;8.576;2023-04-15T02:40:11;3.97;;;3.20;;
691;SDS011;328;50.086;8.576;2023-04-15T02:42:39;4.87;;;3.40;;
691;SDS011;328;50.086;8.576;2023-04-15T02:45:07;5.13;;;4.10;;
691;SDS011;328;50.086;8.576;2023-04-15T02:47:37;3.93;;;3.03;;
691;SDS011;328;50.086;8.576;2023-04-15T02:50:07;7.07;;;3.90;;
691;SDS011;328;50.086;8.576;2023-04-15T02:52:39;4.87;;;4.00;;
691;SDS011;328;50.086;8.576;2023-04-15T02:55:07;5.10;;;3.30;;
691;SDS011;328;50.086;8.576;2023-04-15T02:57:35;4.47;;;3.80;;
691;SDS011;328;50.086;8.576;2023-04-15T03:00:04;6.63;;;4.23;;
691;SDS011;328;50.086;8.576;2023-04-15T03:02:35;4.97;;;3.97;;
691;SDS011;328;50.086;8.576;2023-04-15T03:05:03;6.60;;;3.57;;
691;SDS011;328;50.086;8.576;2023-04-15T03:07:32;5.13;;;3.57;;
691;SDS011;328;50.086;8.576;2023-04-15T03:10:00;6.43;;;3.93;;
691;SDS011;328;50.086;8.576;2023-04-15T03:12:28;5.20;;;3.80;;
691;SDS011;328;50.086;8.576;2023-04-15T03:14:56;4.90;;;3.77;;
691;SDS011;328;50.086;8.576;2023-04-15T03:17:23;12.70;;;4.00;;
691;SDS011;328;50.086;8.576;2023-04-15T03:19:51;4.97;;;4.07;;
691;SDS011;328;50.086;8.576;2023-04-15T03:22:18;7.90;;;4.10;;
691;SDS011;328;50.086;8.576;2023-04-15T03:24:46;3.77;;;3.10;;
691;SDS011;328;50.086;8.576;2023-04-15T03:27:14;4.97;;;3.03;;
691;SDS011;328;50.086;8.576;2023-04-15T03:29:42;6.17;;;3.93;;
691;SDS011;328;50.086;8.576;2023-04-15T03:32:09;6.33;;;4.10;;
691;SDS011;328;50.086;8.576;2023-04-15T03:34:37;6.70;;;3.97;;
691;SDS011;328;50.086;8.576;2023-04-15T03:37:04;4.50;;;3.60;;
691;SDS011;328;50.086;8.576;2023-04-15T03:39:32;6.70;;;3.83;;
691;SDS011;328;50.086;8.576;2023-04-15T03:41:59;4.93;;;4.07;;
691;SDS011;328;50.086;8.576;2023-04-15T03:44:29;7.03;;;3.60;;
691;SDS011;328;50.086;8.576;2023-04-15T03:46:57;7.00;;;3.80;;
691;SDS011;328;50.086;8.576;2023-04-15T03:49:25;7.60;;;3.87;;
691;SDS011;328;50.086;8.576;2023-04-15T03:51:52;8.60;;;4.43;;
691;SDS011;328;50.086;8.576;2023-04-15T03:54:20;5.77;;;3.87;;
691;SDS011;328;50.086;8.576;2023-04-15T03:56:48;7.03;;;6.10;;
691;SDS011;328;50.086;8.576;2023-04-15T03:59:15;4.90;;;3.30;;
691;SDS011;328;50.086;8.576;2023-04-15T04:01:44;5.80;;;4.40;;
691;SDS011;328;50.086;8.576;2023-04-15T04:04:12;6.40;;;4.40;;
691;SDS011;328;50.086;8.576;2023-04-15T04:06:39;4.73;;;4.03;;
691;SDS011;328;50.086;8.576;2023-04-15T04:09:07;5.40;;;3.70;;
691;SDS011;328;50.086;8.576;2023-04-15T04:11:34;5.03;;;3.80;;
691;SDS011;328;50.086;8.576;2023-04-15T04:14:02;5.03;;;4.03;;
691;SDS011;328;50.086;8.576;2023-04-15T04:16:30;5.03;;;3.40;;
691;SDS011;328;50.086;8.576;2023-04-15T04:18:58;4.93;;;3.90;;
691;SDS011;328;50.086;8.576;2023-04-15T04:21:26;6.90;;;4.97;;
691;SDS011;328;50.086;8.576;2023-04-15T04:23:54;6.47;;;4.27;;
691;SDS011;328;50.086;8.576;2023-04-15T04:26:21;6.67;;;4.30;;
691;SDS011;328;50.086;8.576;2023-04-15T04:28:49;5.70;;;3.63;;
691;SDS011;328;50.086;8.576;2023-04-15T04:31:17;6.10;;;4.37;;
691;SDS011;328;50.086;8.576;2023-04-15T04:33:45;5.90;;;4.47;;
691;SDS011;328;50.086;8.576;2023-04-15T04:36:13;7.83;;;5.13;;
691;SDS011;328;50.086;8.576;2023-04-15T04:38:41;7.50;;;4.50;;
691;SDS011;328;50.086;8.576;2023-04-15T04:41:08;6.23;;;4.90;;
691;SDS011;328;50.086;8.576;2023-04-15T04:43:36;6.83;;;4.50;;
691;SDS011;328;50.086;8.576;2023-04-15T04:46:04;7.60;;;5.00;;
691;SDS011;328;50.086;8.576;2023-04-15T04:48:31;8.10;;;5.70;;
691;SDS011;328;50.086;8.576;2023-04-15T04:50:59;6.13;;;4.57;;
691;SDS011;328;50.086;8.576;2023-04-15T04:53:27;5.67;;;4.23;;
691;SDS011;328;50.086;8.576;2023-04-15T04:55:55;6.77;;;4.93;;
691;SDS011;328;50.086;8.576;2023-04-15T04:58:23;5.60;;;4.43;;
691;SDS011;328;50.086;8.576;2023-04-15T05:00:51;8.80;;;5.10;;
691;SDS011;328;50.086;8.576;2023-04-15T05:03:18;8.13;;;4.97;;
691;SDS011;328;50.086;8.576;2023-04-15T05:05:46;6.73;;;5.10;;
691;SDS011;328;50.086;8.576;2023-04-15T05:08:14;7.23;;;4.80;;
691;SDS011;328;50.086;8.576;2023-04-15T05:10:43;5.77;;;4.67;;
691;SDS011;328;50.086;8.576;2023-04-15T05:13:10;7.17;;;5.27;;
691;SDS011;328;50.086;8.576;2023-04-15T05:15:38;6.00;;;4.83;;
691;SDS011;328;50.086;8.576;2023-04-15T05:18:06;5.50;;;4.50;;
691;SDS011;328;50.086;8.576;2023-04-15T05:20:34;8.40;;;5.07;;
691;SDS011;328;50.086;8.576;2023-04-15T05:23:01;7.80;;;4.67;;
691;SDS011;328;50.086;8.576;2023-04-15T05:25:29;7.30;;;4.93;;
691;SDS011;328;50.086;8.576;2023-04-15T05:27:58;10.50;;;5.53;;
691;SDS011;328;50.086;8.576;2023-04-15T05:30:25;5.70;;;4.90;;
691;SDS011;328;50.086;8.576;2023-04-15T05:32:53;11.73;;;4.93;;
691;SDS011;328;50.086;8.576;2023-04-15T05:35:20;8.47;;;6.03;;
691;SDS011;328;50.086;8.576;2023-04-15T05:37:48;6.33;;;4.67;;
691;SDS011;328;50.086;8.576;2023-04-15T05:40:15;6.47;;;4.50;;
691;SDS011;328;50.086;8.576;2023-04-15T05:42:43;5.70;;;4.73;;
691;SDS011;328;50.086;8.576;2023-04-15T05:45:12;8.00;;;4.30;;
691;SDS011;328;50.086;8.576;2023-04-15T05:47:39;5.07;;;3.93;;
691;SDS011;328;50.086;8.576;2023-04-15T05:50:07;6.50;;;4.90;;
691;SDS011;328;50.086;8.576;2023-04-15T05:52:34;6.17;;;5.20;;
691;SDS011;328;50.086;8.576;2023-04-15T05:55:02;6.30;;;4.53;;
691;SDS011;328;50.086;8.576;2023-04-15T05:57:30;7.23;;;4.50;;
691;SDS011;328;50.086;8.576;2023-04-15T05:59:57;5.40;;;4.20;;
691;SDS011;328;50.086;8.576;2023-04-15T06:02:26;10.50;;;5.53;;
691;SDS011;328;50.086;8.576;2023-04-15T06:04:54;7.80;;;5.20;;
691;SDS011;328;50.086;8.576;2023-04-15T06:07:21;5.47;;;4.33;;
691;SDS011;328;50.086;8.576;2023-04-15T06:09:48;5.37;;;4.10;;
691;SDS011;328;50.086;8.576;2023-04-15T06:12:16;8.47;;;5.30;;
691;SDS011;328;50.086;8.576;2023-04-15T06:14:43;8.10;;;4.50;;
691;SDS011;328;50.086;8.576;2023-04-15T06:17:11;7.57;;;4.77;;
691;SDS011;328;50.086;8.576;2023-04-15T06:19:41;8.20;;;5.40;;
691;SDS011;328;50.086;8.576;2023-04-15T06:22:08;6.33;;;4.93;;
691;SDS011;328;50.086;8.576;2023-04-15T06:24:36;7.20;;;5.73;;
691;SDS011;328;50.086;8.576;2023-04-15T06:27:03;6.90;;;5.03;;
691;SDS011;328;50.086;8.576;2023-04-15T06:29:31;7.83;;;4.93;;
691;SDS011;328;50.086;8.576;2023-04-15T06:31:58;7.93;;;5.30;;
691;SDS011;328;50.086;8.576;2023-04-15T06:34:26;6.73;;;5.10;;
691;SDS011;328;50.086;8.576;2023-04-15T06:36:55;7.80;;;5.97;;
691;SDS011;328;50.086;8.576;2023-04-15T06:39:23;8.93;;;5.60;;
691;SDS011;328;50.086;8.576;2023-04-15T06:41:50;7.37;;;4.73;;
691;SDS011;328;50.086;8.576;2023-04-15T06:44:18;8.00;;;6.40;;
691;SDS011;328;50.086;8.576;2023-04-15T06:46:45;6.33;;;4.80;;
691;SDS011;328;50.086;8.576;2023-04-15T06:49:13;7.73;;;4.63;;
691;SDS011;328;50.086;8.576;2023-04-15T06:51:41;9.57;;;6.13;;
691;SDS011;328;50.086;8.576;2023-04-15T06:54:10;5.50;;;4.80;;
691;SDS011;328;50.086;8.576;2023-04-15T06:56:37;8.03;;;5.60;;
691;SDS011;328;50.086;8.576;2023-04-15T06:59:05;9.00;;;5.80;;
691;SDS011;328;50.086;8.576;2023-04-15T07:01:33;6.57;;;4.90;;
691;SDS011;328;50.086;8.576;2023-04-15T07:04:01;7.60;;;5.23;;
691;SDS011;328;50.086;8.576;2023-04-15T07:06:29;7.60;;;4.93;;
691;SDS011;328;50.086;8.576;2023-04-15T07:08:57;6.87;;;4.87;;
691;SDS011;328;50.086;8.576;2023-04-15T07:11:28;6.37;;;4.93;;
691;SDS011;328;50.086;8.576;2023-04-15T07:13:56;5.97;;;5.07;;
691;SDS011;328;50.086;8.576;2023-04-15T07:16:24;9.37;;;6.77;;
691;SDS011;328;50.086;8.576;2023-04-15T07:18:54;10.57;;;7.70;;
691;SDS011;328;50.086;8.576;2023-04-15T07:21:22;7.60;;;5.93;;
691;SDS011;328;50.086;8.576;2023-04-15T07:23:50;8.60;;;5.63;;
691;SDS011;328;50.086;8.576;2023-04-15T07:26:18;7.53;;;5.40;;
691;SDS011;328;50.086;8.576;2023-04-15T07:28:46;6.57;;;5.10;;
691;SDS011;328;50.086;8.576;2023-04-15T07:31:14;6.47;;;5.40;;
691;SDS011;328;50.086;8.576;2023-04-15T07:33:42;6.83;;;5.47;;
691;SDS011;328;50.086;8.576;2023-04-15T07:36:09;8.27;;;5.80;;
691;SDS011;328;50.086;8.576;2023-04-15T07:38:37;7.53;;;6.20;;
691;SDS011;328;50.086;8.576;2023-04-15T07:41:05;11.53;;;7.17;;
691;SDS011;328;50.086;8.576;2023-04-15T07:43:32;9.00;;;5.80;;
691;SDS011;328;50.086;8.576;2023-04-15T07:46:01;10.47;;;6.37;;
691;SDS011;328;50.086;8.576;2023-04-15T07:48:28;14.40;;;5.70;;
691;SDS011;328;50.086;8.576;2023-04-15T07:50:56;6.97;;;5.47;;
691;SDS011;328;50.086;8.576;2023-04-15T07:53:24;9.27;;;7.40;;
691;SDS011;328;50.086;8.576;2023-04-15T07:55:51;6.90;;;6.10;;
691;SDS011;328;50.086;8.576;2023-04-15T07:58:19;5.97;;;4.93;;
691;SDS011;328;50.086;8.576;2023-04-15T08:00:46;7.40;;;5.30;;
691;SDS011;328;50.086;8.576;2023-04-15T08:03:15;6.33;;;5.73;;
691;SDS011;328;50.086;8.576;2023-04-15T08:05:42;10.13;;;6.07;;
691;SDS011;328;50.086;8.576;2023-04-15T08:08:10;7.03;;;5.40;;
691;SDS011;328;50.086;8.576;2023-04-15T08:10:38;7.43;;;4.87;;
691;SDS011;328;50.086;8.576;2023-04-15T08:13:05;8.30;;;5.57;;
691;SDS011;328;50.086;8.576;2023-04-15T08:15:33;8.80;;;6.50;;
691;SDS011;328;50.086;8.576;2023-04-15T08:18:01;6.07;;;5.00;;
691;SDS011;328;50.086;8.576;2023-04-15T08:20:30;6.20;;;5.40;;
691;SDS011;328;50.086;8.576;2023-04-15T08:22:57;5.80;;;5.20;;
691;SDS011;328;50.086;8.576;2023-04-15T08:25:25;8.87;;;5.87;;
691;SDS011;328;50.086;8.576;2023-04-15T08:27:54;5.63;;;4.63;;
691;SDS011;328;50.086;8.576;2023-04-15T08:30:22;6.20;;;5.10;;
691;SDS011;328;50.086;8.576;2023-04-15T08:32:49;5.37;;;4.30;;
691;SDS011;328;50.086;8.576;2023-04-15T08:35:17;4.30;;;3.37;;
691;SDS011;328;50.086;8.576;2023-04-15T08:37:46;4.00;;;3.43;;
691;SDS011;328;50.086;8.576;2023-04-15T08:40:30;5.93;;;3.60;;
691;SDS011;328;50.086;8.576;2023-04-15T08:43:42;3.50;;;3.00;;
691;SDS011;328;50.086;8.576;2023-04-15T08:46:13;4.70;;;3.60;;
691;SDS011;328;50.086;8.576;2023-04-15T08:48:41;4.23;;;3.00;;
691;SDS011;328;50.086;8.576;2023-04-15T08:51:09;4.73;;;3.60;;
691;SDS011;328;50.086;8.576;2023-04-15T08:53:38;3.63;;;3.33;;
691;SDS011;328;50.086;8.576;2023-04-15T08:56:06;3.10;;;2.80;;
691;SDS011;328;50.086;8.576;2023-04-15T08:58:35;3.40;;;3.10;;
691;SDS011;328;50.086;8.576;2023-04-15T09:01:03;4.20;;;3.30;;
691;SDS011;328;50.086;8.576;2023-04-15T09:03:30;4.60;;;3.80;;
691;SDS011;328;50.086;8.576;2023-04-15T09:05:58;4.93;;;4.00;;
691;SDS011;328;50.086;8.576;2023-04-15T09:08:26;5.00;;;3.53;;
691;SDS011;328;50.086;8.576;2023-04-15T09:10:55;3.93;;;3.53;;
691;SDS011;328;50.086;8.576;2023-04-15T09:13:22;5.57;;;4.30;;
691;SDS011;328;50.086;8.576;2023-04-15T09:15:50;5.20;;;4.17;;
691;SDS011;328;50.086;8.576;2023-04-15T09:18:25;8.70;;;4.83;;
691;SDS011;328;50.086;8.576;2023-04-15T09:20:54;9.43;;;4.50;;
691;SDS011;328;50.086;8.576;2023-04-15T09:23:22;5.70;;;4.40;;
691;SDS011;328;50.086;8.576;2023-04-15T09:25:50;5.33;;;3.30;;
691;SDS011;328;50.086;8.576;2023-04-15T09:28:24;7.50;;;4.13;;
691;SDS011;328;50.086;8.576;2023-04-15T09:30:54;4.57;;;3.63;;
691;SDS011;328;50.086;8.576;2023-04-15T09:33:23;6.10;;;4.07;;
691;SDS011;328;50.086;8.576;2023-04-15T09:35:55;5.50;;;3.63;;
691;SDS011;328;50.086;8.576;2023-04-15T09:38:23;5.20;;;3.20;;
691;SDS011;328;50.086;8.576;2023-04-15T09:40:51;3.47;;;2.20;;
691;SDS011;328;50.086;8.576;2023-04-15T09:43:19;4.47;;;2.90;;
691;SDS011;328;50.086;8.576;2023-04-15T09:45:48;3.40;;;2.27;;
691;SDS011;328;50.086;8.576;2023-04-15T09:48:18;3.10;;;1.60;;
691;SDS011;328;50.086;8.576;2023-04-15T09:50:47;3.27;;;1.90;;
691;SDS011;328;50.086;8.576;2023-04-15T09:53:15;2.70;;;2.30;;
691;SDS011;328;50.086;8.576;2023-04-15T09:55:44;3.77;;;2.90;;
691;SDS011;328;50.086;8.576;2023-04-15T09:58:22;3.73;;;3.03;;
691;SDS011;328;50.086;8.576;2023-04-15T10:00:52;3.90;;;2.90;;
691;SDS011;328;50.086;8.576;2023-04-15T10:03:31;3.93;;;2.90;;
691;SDS011;328;50.086;8.576;2023-04-15T10:06:07;3.10;;;2.77;;
691;SDS011;328;50.086;8.576;2023-04-15T10:08:35;4.77;;;2.60;;
691;SDS011;328;50.086;8.576;2023-04-15T10:11:02;3.67;;;2.80;;
691;SDS011;328;50.086;8.576;2023-04-15T10:13:30;4.53;;;2.63;;
691;SDS011;328;50.086;8.576;2023-04-15T10:16:04;3.07;;;2.77;;
691;SDS011;328;50.086;8.576;2023-04-15T10:18:33;4.07;;;2.60;;
691;SDS011;328;50.086;8.576;2023-04-15T10:21:01;6.87;;;2.40;;
691;SDS011;328;50.086;8.576;2023-04-15T10:23:28;3.10;;;2.23;;
691;SDS011;328;50.086;8.576;2023-04-15T10:25:56;2.37;;;1.87;;
691;SDS011;328;50.086;8.576;2023-04-15T10:28:25;3.30;;;2.50;;
691;SDS011;328;50.086;8.576;2023-04-15T10:30:52;5.70;;;2.23;;
691;SDS011;328;50.086;8.576;2023-04-15T10:33:21;3.00;;;2.13;;
691;SDS011;328;50.086;8.576;2023-04-15T10:35:50;2.57;;;2.37;;
691;SDS011;328;50.086;8.576;2023-04-15T10:38:30;3.90;;;3.50;;
691;SDS011;328;50.086;8.576;2023-04-15T10:41:10;2.60;;;2.10;;
691;SDS011;328;50.086;8.576;2023-04-15T10:43:39;1.60;;;1.50;;
691;SDS011;328;50.086;8.576;2023-04-15T10:46:06;2.20;;;1.80;;
691;SDS011;328;50.086;8.576;2023-04-15T10:48:35;4.17;;;2.30;;
691;SDS011;328;50.086;8.576;2023-04-15T10:51:02;3.17;;;2.60;;
691;SDS011;328;50.086;8.576;2023-04-15T10:53:30;2.63;;;2.03;;
691;SDS011;328;50.086;8.576;2023-04-15T10:55:58;2.27;;;1.73;;
691;SDS011;328;50.086;8.576;2023-04-15T10:58:25;2.90;;;1.60;;
691;SDS011;328;50.086;8.576;2023-04-15T11:01:07;3.00;;;1.70;;
691;SDS011;328;50.086;8.576;2023-04-15T11:03:37;3.70;;;2.00;;
691;SDS011;328;50.086;8.576;2023-04-15T11:06:06;2.83;;;2.00;;
691;SDS011;328;50.086;8.576;2023-04-15T11:08:53;3.10;;;1.93;;
691;SDS011;328;50.086;8.576;2023-04-15T11:11:21;2.73;;;1.90;;
691;SDS011;328;50.086;8.576;2023-04-15T11:13:49;4.60;;;2.47;;
691;SDS011;328;50.086;8.576;2023-04-15T11:16:17;2.53;;;2.27;;
691;SDS011;328;50.086;8.576;2023-04-15T11:18:53;2.67;;;1.87;;
691;SDS011;328;50.086;8.576;2023-04-15T11:21:23;2.93;;;2.30;;
691;SDS011;328;50.086;8.576;2023-04-15T11:23:51;3.03;;;2.00;;
691;SDS011;328;50.086;8.576;2023-04-15T11:26:18;2.77;;;1.80;;
691;SDS011;328;50.086;8.576;2023-04-15T11:28:46;3.80;;;1.83;;
691;SDS011;328;50.086;8.576;2023-04-15T11:31:13;2.80;;;2.07;;
691;SDS011;328;50.086;8.576;2023-04-15T11:33:46;3.47;;;2.03;;
691;SDS011;328;50.086;8.576;2023-04-15T11:36:24;3.23;;;2.10;;
691;SDS011;328;50.086;8.576;2023-04-15T11:38:53;3.80;;;2.27;;
691;SDS011;328;50.086;8.576;2023-04-15T11:41:21;3.07;;;2.67;;
691;SDS011;328;50.086;8.576;2023-04-15T11:43:49;8.70;;;2.50;;
691;SDS011;328;50.086;8.576;2023-04-15T11:46:17;4.73;;;1.93;;
691;SDS011;328;50.086;8.576;2023-04-15T11:48:45;3.30;;;2.33;;
691;SDS011;328;50.086;8.576;2023-04-15T11:51:13;3.40;;;2.27;;
691;SDS011;328;50.086;8.576;2023-04-15T11:53:42;4.53;;;2.13;;
691;SDS011;328;50.086;8.576;2023-04-15T11:56:15;2.70;;;2.10;;
691;SDS011;328;50.086;8.576;2023-04-15T11:58:44;5.33;;;2.73;;
691;SDS011;328;50.086;8.576;2023-04-15T12:01:12;5.60;;;3.80;;
691;SDS011;328;50.086;8.576;2023-04-15T12:03:41;5.20;;;3.20;;
691;SDS011;328;50.086;8.576;2023-04-15T12:06:16;3.43;;;2.70;;
691;SDS011;328;50.086;8.576;2023-04-15T12:08:49;9.20;;;4.20;;
691;SDS011;328;50.086;8.576;2023-04-15T12:11:19;5.90;;;3.47;;
691;SDS011;328;50.086;8.576;2023-04-15T12:13:47;4.47;;;3.77;;
691;SDS011;328;50.086;8.576;2023-04-15T12:16:16;4.80;;;4.00;;
691;SDS011;328;50.086;8.576;2023-04-15T12:18:45;3.73;;;3.00;;
691;SDS011;328;50.086;8.576;2023-04-15T12:21:13;6.10;;;3.27;;
691;SDS011;328;50.086;8.576;2023-04-15T12:23:46;6.83;;;4.17;;
691;SDS011;328;50.086;8.576;2023-04-15T12:26:16;6.03;;;3.30;;
691;SDS011;328;50.086;8.576;2023-04-15T12:28:44;4.23;;;3.53;;
691;SDS011;328;50.086;8.576;2023-04-15T12:31:11;2.37;;;1.93;;
691;SDS011;328;50.086;8.576;2023-04-15T12:33:40;1.73;;;1.23;;
691;SDS011;328;50.086;8.576;2023-04-15T12:36:08;1.50;;;1.30;;
691;SDS011;328;50.086;8.576;2023-04-15T12:38:36;1.37;;;1.00;;
691;SDS011;328;50.086;8.576;2023-04-15T12:41:03;1.07;;;0.90;;
691;SDS011;328;50.086;8.576;2023-04-15T12:43:32;1.00;;;0.67;;
691;SDS011;328;50.086;8.576;2023-04-15T12:45:59;1.20;;;1.00;;
691;SDS011;328;50.086;8.576;2023-04-15T12:48:27;1.57;;;1.20;;
691;SDS011;328;50.086;8.576;2023-04-15T12:50:55;1.30;;;0.83;;
691;SDS011;328;50.086;8.576;2023-04-15T12:53:22;3.50;;;0.80;;
691;SDS011;328;50.086;8.576;2023-04-15T12:55:50;1.40;;;0.80;;
691;SDS011;328;50.086;8.576;2023-04-15T12:58:17;1.53;;;1.10;;
691;SDS011;328;50.086;8.576;2023-04-15T13:00:46;1.40;;;1.03;;
691;SDS011;328;50.086;8.576;2023-04-15T13:03:14;1.30;;;0.90;;
691;SDS011;328;50.086;8.576;2023-04-15T13:05:41;1.83;;;1.43;;
691;SDS011;328;50.086;8.576;2023-04-15T13:08:09;1.30;;;0.93;;
691;SDS011;328;50.086;8.576;2023-04-15T13:10:37;1.47;;;1.00;;
691;SDS011;328;50.086;8.576;2023-04-15T13:13:04;1.57;;;1.10;;
691;SDS011;328;50.086;8.576;2023-04-15T13:15:32;4.80;;;1.83;;
691;SDS011;328;50.086;8.576;2023-04-15T13:18:01;3.03;;;1.30;;
691;SDS011;328;50.086;8.576;2023-04-15T13:20:28;1.53;;;1.10;;
691;SDS011;328;50.086;8.576;2023-04-15T13:22:56;2.13;;;1.30;;
691;SDS011;328;50.086;8.576;2023-04-15T13:25:23;3.23;;;1.80;;
691;SDS011;328;50.086;8.576;2023-04-15T13:27:52;1.93;;;0.90;;
691;SDS011;328;50.086;8.576;2023-04-15T13:30:20;1.50;;;1.20;;
691;SDS011;328;50.086;8.576;2023-04-15T13:32:48;1.90;;;1.33;;
691;SDS011;328;50.086;8.576;2023-04-15T13:35:17;1.17;;;1.03;;
691;SDS011;328;50.086;8.576;2023-04-15T13:37:45;1.67;;;1.37;;
691;SDS011;328;50.086;8.576;2023-04-15T13:40:13;1.30;;;1.00;;
691;SDS011;328;50.086;8.576;2023-04-15T13:42:41;1.33;;;1.20;;
691;SDS011;328;50.086;8.576;2023-04-15T13:45:09;1.73;;;1.20;;
691;SDS011;328;50.086;8.576;2023-04-15T13:47:37;1.90;;;1.10;;
691;SDS011;328;50.086;8.576;2023-04-15T13:50:05;2.33;;;1.23;;
691;SDS011;328;50.086;8.576;2023-04-15T13:52:35;1.40;;;1.00;;
691;SDS011;328;50.086;8.576;2023-04-15T13:55:02;1.67;;;0.90;;
691;SDS011;328;50.086;8.576;2023-04-15T13:57:44;1.13;;;0.90;;
691;SDS011;328;50.086;8.576;2023-04-15T14:00:13;0.90;;;0.70;;
691;SDS011;328;50.086;8.576;2023-04-15T14:02:41;1.00;;;0.80;;
691;SDS011;328;50.086;8.576;2023-04-15T14:05:08;1.47;;;1.00;;
691;SDS011;328;50.086;8.576;2023-04-15T14:07:37;1.00;;;0.70;;
691;SDS011;328;50.086;8.576;2023-04-15T14:10:06;1.60;;;0.80;;
691;SDS011;328;50.086;8.576;2023-04-15T14:12:34;0.93;;;0.70;;
691;SDS011;328;50.086;8.576;2023-04-15T14:15:02;1.00;;;0.83;;
691;SDS011;328;50.086;8.576;2023-04-15T14:17:30;1.10;;;0.93;;
691;SDS011;328;50.086;8.576;2023-04-15T14:19:57;0.80;;;0.70;;
691;SDS011;328;50.086;8.576;2023-04-15T14:22:25;1.63;;;0.90;;
691;SDS011;328;50.086;8.576;2023-04-15T14:24:54;1.00;;;0.87;;
691;SDS011;328;50.086;8.576;2023-04-15T14:27:21;1.10;;;0.80;;
691;SDS011;328;50.086;8.576;2023-04-15T14:29:49;2.13;;;1.30;;
691;SDS011;328;50.086;8.576;2023-04-15T14:32:18;1.70;;;0.90;;
691;SDS011;328;50.086;8.576;2023-04-15T14:34:46;1.30;;;0.87;;
691;SDS011;328;50.086;8.576;2023-04-15T14:37:13;1.53;;;1.00;;
691;SDS011;328;50.086;8.576;2023-04-15T14:39:41;1.07;;;0.90;;
691;SDS011;328;50.086;8.576;2023-04-15T14:42:10;1.90;;;1.17;;
691;SDS011;328;50.086;8.576;2023-04-15T14:44:37;1.73;;;1.30;;
691;SDS011;328;50.086;8.576;2023-04-15T14:47:05;1.47;;;1.37;;
691;SDS011;328;50.086;8.576;2023-04-15T14:49:33;1.90;;;1.33;;
691;SDS011;328;50.086;8.576;2023-04-15T14:52:00;1.50;;;1.40;;
691;SDS011;328;50.086;8.576;2023-04-15T14:54:28;1.67;;;1.53;;
691;SDS011;328;50.086;8.576;2023-04-15T14:56:56;1.23;;;1.10;;
691;SDS011;328;50.086;8.576;2023-04-15T14:59:25;1.27;;;0.90;;
691;SDS011;328;50.086;8.576;2023-04-15T15:01:52;1.10;;;1.00;;
691;SDS011;328;50.086;8.576;2023-04-15T15:04:20;3.60;;;2.53;;
691;SDS011;328;50.086;8.576;2023-04-15T15:06:47;3.40;;;2.10;;
691;SDS011;328;50.086;8.576;2023-04-15T15:09:15;1.97;;;1.70;;
691;SDS011;328;50.086;8.576;2023-04-15T15:11:44;2.23;;;1.50;;
691;SDS011;328;50.086;8.576;2023-04-15T15:14:12;1.83;;;1.23;;
691;SDS011;328;50.086;8.576;2023-04-15T15:16:41;0.93;;;0.70;;
691;SDS011;328;50.086;8.576;2023-04-15T15:19:08;1.07;;;0.67;;
691;SDS011;328;50.086;8.576;2023-04-15T15:21:36;1.00;;;0.80;;
691;SDS011;328;50.086;8.576;2023-04-15T15:24:04;1.07;;;0.70;;
691;SDS011;328;50.086;8.576;2023-04-15T15:26:31;1.37;;;0.80;;
691;SDS011;328;50.086;8.576;2023-04-15T15:28:59;1.33;;;0.70;;
691;SDS011;328;50.086;8.576;2023-04-15T15:31:27;0.97;;;0.77;;
691;SDS011;328;50.086;8.576;2023-04-15T15:33:56;0.90;;;0.60;;
691;SDS011;328;50.086;8.576;2023-04-15T15:36:23;0.87;;;0.70;;
691;SDS011;328;50.086;8.576;2023-04-15T15:38:52;6.37;;;1.57;;
691;SDS011;328;50.086;8.576;2023-04-15T15:41:19;3.30;;;0.80;;
691;SDS011;328;50.086;8.576;2023-04-15T15:43:47;1.30;;;0.90;;
691;SDS011;328;50.086;8.576;2023-04-15T15:46:14;1.10;;;0.70;;
691;SDS011;328;50.086;8.576;2023-04-15T15:48:42;1.40;;;0.90;;
691;SDS011;328;50.086;8.576;2023-04-15T15:51:11;2.60;;;0.73;;
691;SDS011;328;50.086;8.576;2023-04-15T15:53:39;1.23;;;1.10;;